createdAt,value
2023-05-23T00:01:59.585Z,31.5
2023-05-23T00:04:04.907Z,31.7
2023-05-23T00:06:10.237Z,31.56
2023-05-23T00:08:15.763Z,31.53
2023-05-23T00:10:20.945Z,31.61
2023-05-23T00:12:26.345Z,31.61
2023-05-23T00:14:31.785Z,31.6
2023-05-23T00:16:37.253Z,31.64
2023-05-23T00:18:42.457Z,31.58
2023-05-23T00:20:47.776Z,31.66
2023-05-23T00:22:53.152Z,31.73
2023-05-23T00:24:58.334Z,31.62
2023-05-23T00:27:03.513Z,31.68
2023-05-23T00:29:08.951Z,31.77
2023-05-23T00:31:14.303Z,31.73
2023-05-23T00:33:19.633Z,31.81
2023-05-23T00:35:24.760Z,31.77
2023-05-23T00:37:30.087Z,31.71
2023-05-23T00:39:35.331Z,31.82
2023-05-23T00:41:40.516Z,31.77
2023-05-23T00:43:45.800Z,31.85
2023-05-23T00:45:51.248Z,31.87
2023-05-23T00:47:56.709Z,31.82
2023-05-23T00:50:02.235Z,31.88
2023-05-23T00:52:07.667Z,31.86
2023-05-23T00:54:13.060Z,31.94
2023-05-23T00:56:18.236Z,31.9
2023-05-23T00:58:23.455Z,31.99
2023-05-23T01:00:28.897Z,32.13
2023-05-23T01:02:34.680Z,31.95
2023-05-23T01:04:40.004Z,32.14
2023-05-23T01:06:45.129Z,32.19
2023-05-23T01:08:50.347Z,32.27
2023-05-23T01:10:55.509Z,32.22
2023-05-23T01:13:00.729Z,32.27
2023-05-23T01:15:06.170Z,32.24
2023-05-23T01:17:11.505Z,32.22
2023-05-23T01:19:16.983Z,32.26
2023-05-23T01:21:22.178Z,32.29
2023-05-23T01:23:27.371Z,32.39
2023-05-23T01:25:32.548Z,32.37
2023-05-23T01:27:37.889Z,32.49
2023-05-23T01:29:43.134Z,32.45
2023-05-23T01:31:48.588Z,32.48
2023-05-23T01:33:53.907Z,32.39
2023-05-23T01:35:59.246Z,32.42
2023-05-23T01:38:04.477Z,32.36
2023-05-23T01:40:09.917Z,32.32
2023-05-23T01:42:15.111Z,32.33
2023-05-23T01:44:22.925Z,32.29
2023-05-23T01:46:28.494Z,32.39
2023-05-23T01:48:33.833Z,32.4
2023-05-23T01:50:39.275Z,32.32
2023-05-23T01:52:44.486Z,32.3
2023-05-23T01:54:49.907Z,32.42
2023-05-23T01:56:55.298Z,32.41
2023-05-23T01:59:00.581Z,32.47
2023-05-23T02:01:05.887Z,32.4
2023-05-23T02:03:11.415Z,32.37
2023-05-23T02:05:16.741Z,32.55
2023-05-23T02:07:22.187Z,32.5
2023-05-23T02:09:27.433Z,32.55
2023-05-23T02:11:32.778Z,32.48
2023-05-23T02:14:25.674Z,32.56
2023-05-23T02:16:31.034Z,32.58
2023-05-23T02:18:36.193Z,32.56
2023-05-23T02:20:41.419Z,32.6
2023-05-23T02:22:46.635Z,32.59
2023-05-23T02:24:51.902Z,32.58
2023-05-23T02:26:57.032Z,32.62
2023-05-23T02:29:02.205Z,32.59
2023-05-23T02:31:07.605Z,32.67
2023-05-23T02:33:13.176Z,32.65
2023-05-23T02:35:18.382Z,32.65
2023-05-23T02:37:23.479Z,32.66
2023-05-23T02:39:28.657Z,32.63
2023-05-23T02:41:33.894Z,32.59
2023-05-23T02:43:39.102Z,32.6
2023-05-23T02:45:45.064Z,32.67
2023-05-23T02:47:50.384Z,32.69
2023-05-23T02:49:55.760Z,32.68
2023-05-23T02:52:00.873Z,32.69
2023-05-23T02:54:06.234Z,32.7
2023-05-23T02:56:11.786Z,32.74
2023-05-23T02:58:16.988Z,32.75
2023-05-23T03:00:22.095Z,32.76
2023-05-23T03:02:27.564Z,32.77
2023-05-23T03:04:33.028Z,32.78
2023-05-23T03:06:38.569Z,32.7
2023-05-23T03:08:44.015Z,32.87
2023-05-23T03:10:49.355Z,32.83
2023-05-23T03:12:54.793Z,32.89
2023-05-23T03:15:00.287Z,32.83
2023-05-23T03:17:05.668Z,32.95
2023-05-23T03:19:11.193Z,32.95
2023-05-23T03:21:16.652Z,32.92
2023-05-23T03:23:22.092Z,33.08
2023-05-23T03:25:27.534Z,33.04
2023-05-23T03:27:32.969Z,33.1
2023-05-23T03:29:38.410Z,33.16
2023-05-23T03:31:43.982Z,33.13
2023-05-23T03:33:49.505Z,33.08
2023-05-23T03:35:54.842Z,33.13
2023-05-23T03:38:00.274Z,33.12
2023-05-23T03:40:05.718Z,33.17
2023-05-23T03:42:11.156Z,33.22
2023-05-23T03:44:16.709Z,33.19
2023-05-23T03:46:22.263Z,33.22
2023-05-23T03:48:27.594Z,33.32
2023-05-23T03:50:33.026Z,33.18
2023-05-23T03:52:38.387Z,33.33
2023-05-23T03:54:43.626Z,33.36
2023-05-23T03:56:48.930Z,33.36
2023-05-23T03:58:54.343Z,33.36
2023-05-23T04:01:01.845Z,33.38
2023-05-23T04:03:07.954Z,33.37
2023-05-23T04:05:13.457Z,33.42
2023-05-23T04:07:19.107Z,33.47
2023-05-23T04:09:24.551Z,33.38
2023-05-23T04:11:29.874Z,33.44
2023-05-23T04:13:35.317Z,33.47
2023-05-23T04:15:41.575Z,33.48
2023-05-23T04:17:47.176Z,33.48
2023-05-23T04:19:52.561Z,33.5
2023-05-23T04:21:57.752Z,33.51
2023-05-23T04:24:02.929Z,33.49
2023-05-23T04:26:08.308Z,33.53
2023-05-23T04:28:13.802Z,33.53
2023-05-23T04:30:19.253Z,33.57
2023-05-23T04:32:24.600Z,33.66
2023-05-23T04:34:30.232Z,33.66
2023-05-23T04:36:35.579Z,33.62
2023-05-23T04:38:40.792Z,33.71
2023-05-23T04:40:45.940Z,33.74
2023-05-23T04:42:51.054Z,33.77
2023-05-23T04:44:56.241Z,33.76
2023-05-23T04:47:01.682Z,33.87
2023-05-23T04:49:07.053Z,33.84
2023-05-23T04:51:12.222Z,33.79
2023-05-23T04:53:18.085Z,33.94
2023-05-23T04:55:23.913Z,33.97
2023-05-23T04:57:29.565Z,33.93
2023-05-23T04:59:34.794Z,33.95
2023-05-23T05:01:40.391Z,33.85
2023-05-23T05:03:45.846Z,33.94
2023-05-23T05:05:51.328Z,33.9
2023-05-23T05:07:56.825Z,33.93
2023-05-23T05:10:03.702Z,34
2023-05-23T05:12:08.988Z,34.06
2023-05-23T05:14:14.098Z,34.08
2023-05-23T05:16:19.361Z,34.03
2023-05-23T05:18:24.688Z,34.15
2023-05-23T05:20:30.116Z,34.13
2023-05-23T05:22:35.222Z,34.17
2023-05-23T05:24:40.491Z,34.18
2023-05-23T05:26:45.714Z,34.18
2023-05-23T05:28:51.058Z,34.19
2023-05-23T05:30:56.345Z,34.24
2023-05-23T05:33:01.662Z,34.3
2023-05-23T05:35:06.940Z,34.09
2023-05-23T05:37:12.201Z,34.25
2023-05-23T05:39:17.336Z,34.17
2023-05-23T05:41:22.577Z,34.27
2023-05-23T05:43:27.841Z,34.2
2023-05-23T05:45:33.244Z,34.24
2023-05-23T05:47:38.481Z,34.45
2023-05-23T05:49:43.774Z,34.4
2023-05-23T05:51:49.166Z,34.38
2023-05-23T05:53:54.496Z,34.32
2023-05-23T05:55:59.574Z,34.29
2023-05-23T05:58:04.972Z,34.13
2023-05-23T06:00:10.329Z,34.31
2023-05-23T06:02:15.671Z,34.45
2023-05-23T06:04:21.077Z,34.46
2023-05-23T06:06:26.349Z,34.38
2023-05-23T06:08:31.616Z,34.44
2023-05-23T06:10:36.753Z,34.44
2023-05-23T06:12:42.046Z,34.35
2023-05-23T06:14:48.021Z,34.31
2023-05-23T06:16:54.000Z,34.4
2023-05-23T06:18:59.315Z,34.47
2023-05-23T06:21:04.512Z,34.54
2023-05-23T06:23:09.793Z,34.29
2023-05-23T06:25:14.907Z,34.28
2023-05-23T06:27:19.957Z,34.26
2023-05-23T06:29:25.027Z,34.33
2023-05-23T06:31:30.327Z,34.51
2023-05-23T06:33:35.410Z,34.48
2023-05-23T06:35:40.858Z,34.42
2023-05-23T06:37:46.240Z,34.59
2023-05-23T06:39:51.483Z,34.38
2023-05-23T06:41:56.680Z,34.42
2023-05-23T06:44:02.106Z,34.54
2023-05-23T06:46:07.683Z,34.59
2023-05-23T06:48:12.941Z,34.66
2023-05-23T06:50:18.094Z,34.63
2023-05-23T06:52:23.230Z,34.73
2023-05-23T06:54:28.425Z,34.73
2023-05-23T06:56:33.605Z,35.03
2023-05-23T06:58:38.843Z,34.92
2023-05-23T07:00:45.071Z,35.02
2023-05-23T07:02:50.413Z,34.89
2023-05-23T07:04:55.844Z,35.1
2023-05-23T07:07:01.224Z,35.11
2023-05-23T07:09:06.534Z,35.21
2023-05-23T07:11:12.015Z,35.37
2023-05-23T07:13:17.228Z,35.74
2023-05-23T07:15:22.494Z,36.06
2023-05-23T07:17:27.923Z,36.38
2023-05-23T07:19:33.525Z,36.63
2023-05-23T07:21:38.775Z,36.18
2023-05-23T07:23:44.124Z,36.1
2023-05-23T07:26:04.695Z,35.61
2023-05-23T07:28:10.023Z,35.5
2023-05-23T07:30:15.402Z,35.47
2023-05-23T07:32:20.842Z,35.6
2023-05-23T07:34:26.248Z,35.6
2023-05-23T07:36:31.574Z,35.88
2023-05-23T07:38:36.762Z,35.9
2023-05-23T07:40:42.774Z,36.04
2023-05-23T07:42:48.155Z,36.01
2023-05-23T07:44:53.491Z,36.38
2023-05-23T07:46:59.134Z,36.44
2023-05-23T07:49:04.604Z,36.23
2023-05-23T07:51:10.134Z,36.44
2023-05-23T07:53:15.454Z,36.64
2023-05-23T07:55:20.966Z,36.43
2023-05-23T07:57:26.231Z,36.08
2023-05-23T07:59:31.673Z,36.14
2023-05-23T08:01:37.047Z,36.1
2023-05-23T08:03:42.440Z,36.4
2023-05-23T08:05:47.888Z,36.87
2023-05-23T08:07:53.020Z,36.57
2023-05-23T08:09:58.257Z,36.76
2023-05-23T08:12:05.176Z,36.92
2023-05-23T08:14:10.556Z,37.14
2023-05-23T08:16:16.193Z,37.21
2023-05-23T08:18:21.657Z,37.1
2023-05-23T08:20:26.893Z,37.18
2023-05-23T08:22:32.229Z,37.1
2023-05-23T08:24:37.630Z,37.19
2023-05-23T08:26:42.901Z,37.52
2023-05-23T08:28:48.373Z,37.71
2023-05-23T08:30:53.590Z,37.65
2023-05-23T08:32:59.031Z,37.79
2023-05-23T08:35:04.550Z,37.32
2023-05-23T08:37:09.902Z,37.57
2023-05-23T08:39:16.728Z,40.14
2023-05-23T08:41:24.612Z,37.51
2023-05-23T08:43:30.605Z,37.27
2023-05-23T08:45:36.539Z,37.57
2023-05-23T08:47:42.620Z,38.38
2023-05-23T08:49:48.489Z,38.51
2023-05-23T08:51:53.765Z,38.92
2023-05-23T08:53:59.360Z,38.84
2023-05-23T08:56:04.972Z,38.9
2023-05-23T08:58:10.652Z,38.62
2023-05-23T09:00:16.277Z,38.61
2023-05-23T09:02:21.952Z,38.64
2023-05-23T09:04:27.515Z,38.67
2023-05-23T09:06:34.049Z,38.76
2023-05-23T09:08:39.288Z,38.89
2023-05-23T09:10:45.201Z,39.01
2023-05-23T09:12:50.554Z,38.92
2023-05-23T09:14:55.724Z,39
2023-05-23T09:17:04.680Z,39.02
2023-05-23T09:19:10.409Z,39.08
2023-05-23T09:21:16.229Z,38.84
2023-05-23T09:23:22.290Z,39.48
2023-05-23T09:25:27.626Z,39.67
2023-05-23T09:27:34.507Z,40.24
2023-05-23T09:29:40.315Z,40.18
2023-05-23T09:31:46.113Z,41.04
2023-05-23T09:33:52.547Z,42.1
2023-05-23T09:35:58.258Z,42.13
2023-05-23T09:38:04.318Z,42.84
2023-05-23T09:40:09.845Z,42.97
2023-05-23T09:42:15.848Z,43.64
2023-05-23T09:44:21.369Z,43.53
2023-05-23T09:46:26.918Z,44.11
2023-05-23T09:48:32.382Z,43.89
2023-05-23T09:50:37.939Z,43.59
2023-05-23T09:52:43.466Z,43.54
2023-05-23T09:54:49.022Z,43.79
2023-05-23T09:56:54.294Z,43.65
2023-05-23T09:58:59.696Z,43.17
2023-05-23T10:01:05.358Z,43.66
2023-05-23T10:03:11.273Z,43.51
2023-05-23T10:05:16.618Z,43.46
2023-05-23T10:07:21.962Z,43.85
2023-05-23T10:09:27.417Z,43.71
2023-05-23T10:11:32.838Z,43.63
2023-05-23T10:13:39.104Z,43.49
2023-05-23T10:15:44.236Z,43.32
2023-05-23T10:17:49.622Z,43.22
2023-05-23T10:19:54.886Z,42.98
2023-05-23T10:21:59.970Z,43.2
2023-05-23T10:24:05.036Z,43
2023-05-23T10:26:10.273Z,43
2023-05-23T10:28:15.852Z,43.07
2023-05-23T10:30:21.300Z,43.01
2023-05-23T10:32:26.908Z,42.98
2023-05-23T10:34:32.300Z,43.02
2023-05-23T10:36:37.710Z,42.98
2023-05-23T10:38:43.144Z,43.25
2023-05-23T10:40:48.875Z,43.13
2023-05-23T10:42:54.573Z,43.18
2023-05-23T10:45:01.589Z,43.23
2023-05-23T10:47:07.430Z,43.09
2023-05-23T10:49:12.634Z,43.1
2023-05-23T10:51:18.205Z,43.04
2023-05-23T10:53:23.792Z,43.03
2023-05-23T10:55:29.337Z,43.03
2023-05-23T10:57:34.662Z,43.24
2023-05-23T10:59:40.315Z,43.37
2023-05-23T11:01:45.765Z,43.23
2023-05-23T11:03:57.022Z,43.18
2023-05-23T11:06:02.786Z,43.18
2023-05-23T11:08:08.325Z,43.36
2023-05-23T11:10:14.554Z,43.31
2023-05-23T11:12:21.666Z,43.48
2023-05-23T11:14:27.294Z,43.34
2023-05-23T11:16:33.088Z,43.3
2023-05-23T11:18:38.897Z,43.13
2023-05-23T11:20:44.699Z,43.06
2023-05-23T11:22:50.292Z,43.1
2023-05-23T11:24:56.169Z,43.14
2023-05-23T11:27:01.459Z,43.25
2023-05-23T11:29:06.928Z,43.22
2023-05-23T11:31:12.462Z,43.02
2023-05-23T11:33:18.841Z,43.21
2023-05-23T11:35:24.474Z,43.23
2023-05-23T11:37:30.451Z,43.21
2023-05-23T11:39:35.783Z,43.15
2023-05-23T11:41:41.208Z,43.13
2023-05-23T11:43:46.448Z,43.18
2023-05-23T11:45:52.000Z,43
2023-05-23T11:47:57.674Z,43.15
2023-05-23T11:50:03.283Z,42.96
2023-05-23T11:52:08.718Z,42.98
2023-05-23T11:54:14.377Z,42.71
2023-05-23T11:56:19.948Z,42.83
2023-05-23T11:58:25.444Z,42.69
2023-05-23T12:00:30.890Z,42.87
2023-05-23T12:02:36.440Z,42.67
2023-05-23T12:04:41.991Z,42.88
2023-05-23T12:06:47.519Z,42.79
2023-05-23T12:08:52.952Z,42.75
2023-05-23T12:10:58.566Z,42.54
2023-05-23T12:13:03.904Z,42.41
2023-05-23T12:15:09.682Z,42.33
2023-05-23T12:17:16.132Z,42.28
2023-05-23T12:19:21.830Z,42.55
2023-05-23T12:21:27.302Z,42.51
2023-05-23T12:23:36.361Z,42.7
2023-05-23T12:25:42.478Z,42.42
2023-05-23T12:27:48.452Z,42.09
2023-05-23T12:29:54.038Z,42.17
2023-05-23T12:31:59.456Z,42.18
2023-05-23T12:34:04.900Z,42.36
2023-05-23T12:36:10.435Z,42.39
2023-05-23T12:38:15.972Z,42.35
2023-05-23T12:40:21.449Z,42.23
2023-05-23T12:42:28.278Z,42.19
2023-05-23T12:44:34.729Z,42.34
2023-05-23T12:46:40.152Z,42.28
2023-05-23T12:48:45.645Z,42.41
2023-05-23T12:50:51.158Z,42.7
2023-05-23T12:52:56.738Z,42.67
2023-05-23T12:55:02.287Z,42.63
2023-05-23T12:57:07.615Z,42.87
2023-05-23T12:59:12.972Z,42.73
2023-05-23T13:01:18.974Z,42.27
2023-05-23T13:03:24.447Z,42.26
2023-05-23T13:05:29.946Z,42.36
2023-05-23T13:07:35.394Z,42.15
2023-05-23T13:09:40.795Z,42.26
2023-05-23T13:11:46.391Z,42.19
2023-05-23T13:13:51.645Z,42.38
2023-05-23T13:15:57.289Z,42.39
2023-05-23T13:18:03.521Z,42.46
2023-05-23T13:20:09.086Z,42.45
2023-05-23T13:22:14.380Z,42.37
2023-05-23T13:24:19.649Z,41.97
2023-05-23T13:26:24.973Z,42.21
2023-05-23T13:28:30.403Z,42.35
2023-05-23T13:30:35.904Z,42.59
2023-05-23T13:32:41.402Z,42.47
2023-05-23T13:34:47.013Z,42.63
2023-05-23T13:36:52.269Z,42.38
2023-05-23T13:38:57.720Z,42.65
2023-05-23T13:41:02.973Z,42.49
2023-05-23T13:43:08.199Z,42.41
2023-05-23T13:45:13.729Z,42.3
2023-05-23T13:47:19.275Z,41.78
2023-05-23T13:49:24.514Z,42.07
2023-05-23T13:51:29.871Z,41.75
2023-05-23T13:53:35.257Z,41.94
2023-05-23T13:55:40.427Z,41.86
2023-05-23T13:57:45.748Z,41.89
2023-05-23T13:59:51.099Z,41.54
2023-05-23T14:01:56.585Z,41.38
2023-05-23T14:04:01.944Z,41.42
2023-05-23T14:06:07.420Z,41.4
2023-05-23T14:08:12.822Z,41.48
2023-05-23T14:10:18.060Z,41.39
2023-05-23T14:12:23.736Z,41.6
2023-05-23T14:14:29.017Z,41.6
2023-05-23T14:16:35.865Z,42.03
2023-05-23T14:18:41.449Z,42.29
2023-05-23T14:20:46.835Z,42.27
2023-05-23T14:22:52.377Z,42.01
2023-05-23T14:24:57.650Z,41.87
2023-05-23T14:27:03.162Z,41.67
2023-05-23T14:29:08.369Z,41.33
2023-05-23T14:31:13.744Z,41.26
2023-05-23T14:33:19.371Z,41.28
2023-05-23T14:35:24.932Z,41.61
2023-05-23T14:37:30.438Z,41.66
2023-05-23T14:39:36.148Z,41.47
2023-05-23T14:41:42.087Z,41.46
2023-05-23T14:43:47.848Z,41.44
2023-05-23T14:45:55.542Z,41.59
2023-05-23T14:48:01.169Z,42.38
2023-05-23T14:50:06.436Z,42.55
2023-05-23T14:52:11.790Z,43.36
2023-05-23T14:54:17.192Z,43.39
2023-05-23T14:56:22.612Z,43.68
2023-05-23T14:58:27.980Z,44.29
2023-05-23T15:00:33.441Z,44.56
2023-05-23T15:02:38.914Z,44.37
2023-05-23T15:04:44.385Z,44.46
2023-05-23T15:06:49.819Z,44.5
2023-05-23T15:08:55.160Z,44.83
2023-05-23T15:11:00.703Z,44.73
2023-05-23T15:13:06.024Z,44.8
2023-05-23T15:15:11.285Z,45.52
2023-05-23T15:17:16.504Z,45.39
2023-05-23T15:19:21.758Z,45.15
2023-05-23T15:21:27.009Z,45.07
2023-05-23T15:23:32.343Z,45.5
2023-05-23T15:25:52.451Z,45.68
2023-05-23T15:27:57.883Z,45.64
2023-05-23T15:30:03.411Z,45.25
2023-05-23T15:32:08.837Z,45.51
2023-05-23T15:34:14.026Z,45.66
2023-05-23T15:36:19.293Z,45.43
2023-05-23T15:38:24.532Z,45.56
2023-05-23T15:40:29.664Z,45.16
2023-05-23T15:42:35.103Z,45.17
2023-05-23T15:44:40.707Z,44.71
2023-05-23T15:46:46.394Z,44.69
2023-05-23T15:48:51.732Z,44.98
2023-05-23T15:50:57.119Z,45.54
2023-05-23T15:53:02.512Z,45.86
2023-05-23T15:55:07.750Z,45.16
2023-05-23T15:57:12.915Z,44.81
2023-05-23T15:59:18.316Z,44.85
2023-05-23T16:01:23.824Z,44.66
2023-05-23T16:03:29.206Z,44.58
2023-05-23T16:05:34.505Z,44.61
2023-05-23T16:07:39.991Z,44.49
2023-05-23T16:09:45.323Z,44.56
2023-05-23T16:11:50.575Z,44.68
2023-05-23T16:13:55.920Z,44.72
2023-05-23T16:16:01.439Z,44.62
2023-05-23T16:18:06.826Z,44.65
2023-05-23T16:20:12.101Z,44.33
2023-05-23T16:22:17.323Z,44.36
2023-05-23T16:24:22.701Z,44.48
2023-05-23T16:26:28.027Z,44.61
2023-05-23T16:28:33.297Z,44.88
2023-05-23T16:30:38.657Z,44.9
2023-05-23T16:32:44.178Z,45.06
2023-05-23T16:34:56.145Z,44.85
2023-05-23T16:37:01.320Z,44.98
2023-05-23T16:39:06.624Z,44.91
2023-05-23T16:41:12.111Z,44.62
2023-05-23T16:43:17.362Z,44.7
2023-05-23T16:45:22.516Z,44.67
2023-05-23T16:47:28.106Z,44.62
2023-05-23T16:49:33.339Z,44.24
2023-05-23T16:51:38.741Z,44.02
2023-05-23T16:53:44.024Z,43.99
2023-05-23T16:55:49.323Z,44.49
2023-05-23T16:57:54.660Z,44.69
2023-05-23T17:00:00.146Z,44.74
2023-05-23T17:02:05.353Z,44.61
2023-05-23T17:04:10.664Z,44.35
2023-05-23T17:06:15.965Z,44.18
2023-05-23T17:08:21.251Z,44.27
2023-05-23T17:10:26.678Z,43.87
2023-05-23T17:12:31.924Z,43.9
2023-05-23T17:14:37.061Z,44.01
2023-05-23T17:16:42.439Z,44.09
2023-05-23T17:18:47.845Z,44.39
2023-05-23T17:20:53.160Z,44.62
2023-05-23T17:22:58.603Z,44.92
2023-05-23T17:25:04.051Z,45.28
2023-05-23T17:27:09.368Z,45.98
2023-05-23T17:29:14.825Z,45.74
2023-05-23T17:31:20.036Z,46.26
2023-05-23T17:33:25.396Z,46.21
2023-05-23T17:35:30.732Z,46.55
2023-05-23T17:37:38.654Z,46.67
2023-05-23T17:39:43.849Z,46.93
2023-05-23T17:41:49.218Z,47.04
2023-05-23T17:43:54.539Z,47.18
2023-05-23T17:46:00.776Z,46.75
2023-05-23T17:48:06.582Z,46.64
2023-05-23T17:50:11.826Z,46.41
2023-05-23T17:52:17.140Z,46.43
2023-05-23T17:54:22.408Z,46.48
2023-05-23T17:56:27.695Z,46.44
2023-05-23T17:58:33.350Z,46.71
2023-05-23T18:00:38.747Z,46.31
2023-05-23T18:02:44.052Z,46.68
2023-05-23T18:04:49.417Z,46.55
2023-05-23T18:06:54.603Z,46.33
2023-05-23T18:08:59.929Z,46.43
2023-05-23T18:11:05.365Z,46.05
2023-05-23T18:13:10.597Z,46.37
2023-05-23T18:15:15.962Z,46.22
2023-05-23T18:17:21.436Z,46.09
2023-05-23T18:19:26.789Z,46.23
2023-05-23T18:21:32.014Z,45.97
2023-05-23T18:23:37.399Z,45.98
2023-05-23T18:25:42.731Z,46.03
2023-05-23T18:27:48.076Z,46.08
2023-05-23T18:29:53.424Z,45.95
2023-05-23T18:31:58.761Z,46.39
2023-05-23T18:34:04.325Z,46.76
2023-05-23T18:36:09.692Z,47.12
2023-05-23T18:38:14.964Z,47.01
2023-05-23T18:40:20.308Z,46.92
2023-05-23T18:42:25.647Z,47.09
2023-05-23T18:44:30.894Z,46.94
2023-05-23T18:46:36.469Z,46.92
2023-05-23T18:48:41.813Z,46.88
2023-05-23T18:50:47.387Z,46.81
2023-05-23T18:52:52.639Z,46.93
2023-05-23T18:54:57.764Z,47.04
2023-05-23T18:57:02.933Z,46.85
2023-05-23T18:59:08.343Z,46.49
2023-05-23T19:01:13.595Z,46.42
2023-05-23T19:03:19.457Z,46.54
2023-05-23T19:05:24.764Z,46.99
2023-05-23T19:07:29.997Z,46.99
2023-05-23T19:09:35.338Z,47.19
2023-05-23T19:11:40.702Z,47.12
2023-05-23T19:13:45.949Z,47.11
2023-05-23T19:15:51.358Z,47.29
2023-05-23T19:17:56.706Z,47.6
2023-05-23T19:20:02.071Z,47.56
2023-05-23T19:22:07.370Z,47.58
2023-05-23T19:24:12.904Z,47.84
2023-05-23T19:26:21.169Z,48.16
2023-05-23T19:28:26.554Z,48.21
2023-05-23T19:30:31.790Z,48.33
2023-05-23T19:32:36.991Z,48.15
2023-05-23T19:34:42.256Z,48.16
2023-05-23T19:36:47.543Z,48.2
2023-05-23T19:38:52.936Z,48.21
2023-05-23T19:40:58.288Z,48.16
2023-05-23T19:43:03.720Z,48.53
2023-05-23T19:45:08.961Z,48.22
2023-05-23T19:47:14.118Z,48.2
2023-05-23T19:49:19.528Z,47.82
2023-05-23T19:51:24.874Z,47.89
2023-05-23T19:53:30.129Z,48.12
2023-05-23T19:55:35.370Z,47.96
2023-05-23T19:57:40.747Z,47.93
2023-05-23T19:59:46.110Z,48.03
2023-05-23T20:01:51.628Z,47.96
2023-05-23T20:03:57.111Z,48.16
2023-05-23T20:06:02.461Z,48.19
2023-05-23T20:08:07.717Z,48.48
2023-05-23T20:10:12.981Z,48.3
2023-05-23T20:12:18.340Z,48.23
2023-05-23T20:14:23.680Z,48.23
2023-05-23T20:16:29.156Z,47.83
2023-05-23T20:18:34.558Z,47.54
2023-05-23T20:20:39.820Z,47.36
2023-05-23T20:22:45.242Z,47.31
2023-05-23T20:24:50.366Z,47.18
2023-05-23T20:26:55.618Z,47.16
2023-05-23T20:29:01.149Z,47.17
2023-05-23T20:31:06.443Z,47.04
2023-05-23T20:33:15.563Z,46.95
2023-05-23T20:35:21.149Z,47
2023-05-23T20:37:26.498Z,47.05
2023-05-23T20:39:31.837Z,47.07
2023-05-23T20:41:36.986Z,46.92
2023-05-23T20:43:42.263Z,47.26
2023-05-23T20:45:47.646Z,47.07
2023-05-23T20:47:52.954Z,47.34
2023-05-23T20:49:58.208Z,47.23
2023-05-23T20:52:03.543Z,47.13
2023-05-23T20:54:08.996Z,47.1
2023-05-23T20:56:14.426Z,47.1
2023-05-23T20:58:19.713Z,47.04
2023-05-23T21:00:25.108Z,47.12
2023-05-23T21:02:30.785Z,47.15
2023-05-23T21:04:36.304Z,47.09
2023-05-23T21:06:41.741Z,47.1
2023-05-23T21:08:47.387Z,47.08
2023-05-23T21:10:56.891Z,47.29
2023-05-23T21:13:02.280Z,47.37
2023-05-23T21:15:07.565Z,47.31
2023-05-23T21:17:13.047Z,47.22
2023-05-23T21:19:18.594Z,47.28
2023-05-23T21:21:23.799Z,47.31
2023-05-23T21:23:29.911Z,47.29
2023-05-23T21:25:35.518Z,47.24
2023-05-23T21:27:40.942Z,47.35
2023-05-23T21:29:46.324Z,47.35
2023-05-23T21:31:51.873Z,47.28
2023-05-23T21:33:57.063Z,47.21
2023-05-23T21:36:03.461Z,47.2
2023-05-23T21:38:08.762Z,47.26
2023-05-23T21:40:14.073Z,47.16
2023-05-23T21:42:19.428Z,47.08
2023-05-23T21:44:24.679Z,47.16
2023-05-23T21:46:30.126Z,47.08
2023-05-23T21:48:35.552Z,47.07
2023-05-23T21:50:41.142Z,47.01
2023-05-23T21:52:46.628Z,47.02
2023-05-23T21:54:51.879Z,46.97
2023-05-23T21:56:57.266Z,47.08
2023-05-23T21:59:02.646Z,47.15
2023-05-23T22:01:07.951Z,47.15
2023-05-23T22:03:13.560Z,47.07
2023-05-23T22:05:18.972Z,47.05
2023-05-23T22:07:24.404Z,47
2023-05-23T22:09:29.743Z,46.94
2023-05-23T22:11:35.336Z,46.96
2023-05-23T22:13:40.680Z,47.01
2023-05-23T22:15:46.003Z,47
2023-05-23T22:17:51.390Z,46.9
2023-05-23T22:19:56.637Z,46.88
2023-05-23T22:22:02.080Z,46.88
2023-05-23T22:24:07.524Z,46.86
2023-05-23T22:26:12.930Z,46.96
2023-05-23T22:28:18.404Z,46.84
2023-05-23T22:30:23.652Z,46.99
2023-05-23T22:32:29.196Z,46.85
2023-05-23T22:34:34.625Z,46.85
2023-05-23T22:36:40.055Z,46.82
2023-05-23T22:38:45.408Z,46.84
2023-05-23T22:40:50.692Z,46.88
2023-05-23T22:42:55.836Z,46.77
2023-05-23T22:45:01.111Z,46.7
2023-05-23T22:47:06.557Z,46.7
2023-05-23T22:49:11.940Z,46.47
2023-05-23T22:51:17.423Z,46.52
2023-05-23T22:53:22.715Z,46.55
2023-05-23T22:55:28.202Z,46.53
2023-05-23T22:57:33.437Z,46.41
2023-05-23T22:59:38.766Z,46.36
2023-05-23T23:01:44.663Z,46.29
2023-05-23T23:03:50.029Z,46.28
2023-05-23T23:05:55.405Z,46.28
2023-05-23T23:08:00.741Z,46.25
2023-05-23T23:10:06.076Z,46.16
2023-05-23T23:12:11.317Z,46.04
2023-05-23T23:14:16.551Z,46
2023-05-23T23:16:21.943Z,45.93
2023-05-23T23:18:27.231Z,46.06
2023-05-23T23:20:32.779Z,46.03
2023-05-23T23:22:38.125Z,45.93
2023-05-23T23:24:43.337Z,45.97
2023-05-23T23:26:49.100Z,45.93
2023-05-23T23:28:54.413Z,45.94
2023-05-23T23:30:59.664Z,45.95
2023-05-23T23:33:05.191Z,46.06
2023-05-23T23:35:10.659Z,46.24
2023-05-23T23:37:15.880Z,46.13
2023-05-23T23:39:21.425Z,46.16
2023-05-23T23:41:27.013Z,46.22
2023-05-23T23:43:32.454Z,46.38
2023-05-23T23:45:37.958Z,46.35
2023-05-23T23:47:43.429Z,46.38
2023-05-23T23:49:48.724Z,46.23
2023-05-23T23:51:53.942Z,46.38
2023-05-23T23:53:59.194Z,46.38
2023-05-23T23:56:04.633Z,46.43
2023-05-23T23:58:09.976Z,46.49
